sensor_id;sensor_type;location;lat;lon;timestamp;P1;durP1;ratioP1;P2;durP2;ratioP2
42364;SDS011;28498;54.400;18.566;2023-05-10T00:00:21;12.63;;;6.72;;
42364;SDS011;28498;54.400;18.566;2023-05-10T00:02:50;12.70;;;6.28;;
42364;SDS011;28498;54.400;18.566;2023-05-10T00:05:17;10.00;;;6.20;;
42364;SDS011;28498;54.400;18.566;2023-05-10T00:07:44;10.98;;;7.55;;
42364;SDS011;28498;54.400;18.566;2023-05-10T00:10:11;11.95;;;7.28;;
42364;SDS011;28498;54.400;18.566;2023-05-10T00:12:38;11.48;;;7.20;;
42364;SDS011;28498;54.400;18.566;2023-05-10T00:15:06;11.13;;;6.55;;
42364;SDS011;28498;54.400;18.566;2023-05-10T00:17:33;10.75;;;6.03;;
42364;SDS011;28498;54.400;18.566;2023-05-10T00:20:01;11.25;;;5.25;;
42364;SDS011;28498;54.400;18.566;2023-05-10T00:22:28;6.30;;;4.35;;
42364;SDS011;28498;54.400;18.566;2023-05-10T00:24:54;6.93;;;4.47;;
42364;SDS011;28498;54.400;18.566;2023-05-10T00:27:21;6.80;;;4.20;;
42364;SDS011;28498;54.400;18.566;2023-05-10T00:29:49;8.68;;;4.70;;
42364;SDS011;28498;54.400;18.566;2023-05-10T00:32:16;12.95;;;5.43;;
42364;SDS011;28498;54.400;18.566;2023-05-10T00:34:43;9.50;;;4.95;;
42364;SDS011;28498;54.400;18.566;2023-05-10T00:37:10;10.40;;;5.38;;
42364;SDS011;28498;54.400;18.566;2023-05-10T00:39:37;9.10;;;5.10;;
42364;SDS011;28498;54.400;18.566;2023-05-10T00:42:04;11.90;;;5.85;;
42364;SDS011;28498;54.400;18.566;2023-05-10T00:44:31;11.00;;;5.80;;
42364;SDS011;28498;54.400;18.566;2023-05-10T00:46:58;13.50;;;5.90;;
42364;SDS011;28498;54.400;18.566;2023-05-10T00:49:25;33.42;;;18.55;;
42364;SDS011;28498;54.400;18.566;2023-05-10T00:51:52;18.05;;;7.40;;
42364;SDS011;28498;54.400;18.566;2023-05-10T00:54:19;11.98;;;6.68;;
42364;SDS011;28498;54.400;18.566;2023-05-10T00:56:46;12.63;;;6.50;;
42364;SDS011;28498;54.400;18.566;2023-05-10T00:59:16;11.05;;;6.60;;
42364;SDS011;28498;54.400;18.566;2023-05-10T01:01:47;9.25;;;4.85;;
42364;SDS011;28498;54.400;18.566;2023-05-10T01:04:14;8.10;;;5.03;;
42364;SDS011;28498;54.400;18.566;2023-05-10T01:06:41;9.77;;;4.82;;
42364;SDS011;28498;54.400;18.566;2023-05-10T01:09:09;8.80;;;4.72;;
42364;SDS011;28498;54.400;18.566;2023-05-10T01:11:38;8.27;;;4.65;;
42364;SDS011;28498;54.400;18.566;2023-05-10T01:14:06;8.32;;;4.72;;
42364;SDS011;28498;54.400;18.566;2023-05-10T01:16:37;8.40;;;4.53;;
42364;SDS011;28498;54.400;18.566;2023-05-10T01:19:10;8.15;;;4.43;;
42364;SDS011;28498;54.400;18.566;2023-05-10T01:21:48;10.95;;;4.40;;
42364;SDS011;28498;54.400;18.566;2023-05-10T01:43:45;11.38;;;5.70;;
42364;SDS011;28498;54.400;18.566;2023-05-10T01:46:36;8.82;;;5.00;;
42364;SDS011;28498;54.400;18.566;2023-05-10T01:49:14;8.90;;;4.95;;
42364;SDS011;28498;54.400;18.566;2023-05-10T01:51:57;11.32;;;4.93;;
42364;SDS011;28498;54.400;18.566;2023-05-10T01:54:30;10.10;;;4.65;;
42364;SDS011;28498;54.400;18.566;2023-05-10T01:57:00;10.13;;;4.85;;
42364;SDS011;28498;54.400;18.566;2023-05-10T01:59:33;8.75;;;4.22;;
42364;SDS011;28498;54.400;18.566;2023-05-10T02:02:02;9.95;;;4.90;;
42364;SDS011;28498;54.400;18.566;2023-05-10T02:04:32;11.48;;;4.78;;
42364;SDS011;28498;54.400;18.566;2023-05-10T02:07:03;10.57;;;5.20;;
42364;SDS011;28498;54.400;18.566;2023-05-10T02:09:33;8.68;;;4.88;;
42364;SDS011;28498;54.400;18.566;2023-05-10T02:12:01;9.63;;;5.00;;
42364;SDS011;28498;54.400;18.566;2023-05-10T02:14:30;12.20;;;5.10;;
42364;SDS011;28498;54.400;18.566;2023-05-10T02:17:00;8.13;;;5.47;;
42364;SDS011;28498;54.400;18.566;2023-05-10T02:19:30;10.90;;;4.90;;
42364;SDS011;28498;54.400;18.566;2023-05-10T02:21:59;8.55;;;5.07;;
42364;SDS011;28498;54.400;18.566;2023-05-10T02:24:27;9.60;;;5.13;;
42364;SDS011;28498;54.400;18.566;2023-05-10T02:26:54;11.30;;;5.13;;
42364;SDS011;28498;54.400;18.566;2023-05-10T02:29:25;11.32;;;5.10;;
42364;SDS011;28498;54.400;18.566;2023-05-10T02:31:54;8.52;;;4.88;;
42364;SDS011;28498;54.400;18.566;2023-05-10T02:34:22;10.02;;;5.45;;
42364;SDS011;28498;54.400;18.566;2023-05-10T02:36:52;9.95;;;4.88;;
42364;SDS011;28498;54.400;18.566;2023-05-10T02:39:20;10.40;;;4.85;;
42364;SDS011;28498;54.400;18.566;2023-05-10T02:41:49;9.20;;;5.10;;
42364;SDS011;28498;54.400;18.566;2023-05-10T02:44:18;9.77;;;5.50;;
42364;SDS011;28498;54.400;18.566;2023-05-10T02:46:46;10.07;;;5.47;;
42364;SDS011;28498;54.400;18.566;2023-05-10T02:49:14;9.32;;;5.07;;
42364;SDS011;28498;54.400;18.566;2023-05-10T02:51:43;11.77;;;5.95;;
42364;SDS011;28498;54.400;18.566;2023-05-10T02:54:18;9.82;;;5.45;;
42364;SDS011;28498;54.400;18.566;2023-05-10T02:56:53;8.55;;;5.07;;
42364;SDS011;28498;54.400;18.566;2023-05-10T02:59:23;9.77;;;4.60;;
42364;SDS011;28498;54.400;18.566;2023-05-10T03:01:50;8.00;;;4.88;;
42364;SDS011;28498;54.400;18.566;2023-05-10T03:04:18;9.57;;;4.88;;
42364;SDS011;28498;54.400;18.566;2023-05-10T03:06:45;8.45;;;4.78;;
42364;SDS011;28498;54.400;18.566;2023-05-10T03:09:12;7.65;;;4.97;;
42364;SDS011;28498;54.400;18.566;2023-05-10T03:15:01;15.75;;;5.32;;
42364;SDS011;28498;54.400;18.566;2023-05-10T03:18:06;8.82;;;5.07;;
42364;SDS011;28498;54.400;18.566;2023-05-10T03:20:59;8.05;;;5.32;;
42364;SDS011;28498;54.400;18.566;2023-05-10T03:23:41;8.02;;;5.55;;
42364;SDS011;28498;54.400;18.566;2023-05-10T03:26:25;12.38;;;4.97;;
42364;SDS011;28498;54.400;18.566;2023-05-10T03:28:53;7.15;;;4.70;;
42364;SDS011;28498;54.400;18.566;2023-05-10T03:31:22;6.07;;;4.13;;
42364;SDS011;28498;54.400;18.566;2023-05-10T03:33:50;12.48;;;4.60;;
42364;SDS011;28498;54.400;18.566;2023-05-10T03:36:18;9.43;;;4.70;;
42364;SDS011;28498;54.400;18.566;2023-05-10T03:38:45;8.00;;;5.05;;
42364;SDS011;28498;54.400;18.566;2023-05-10T03:41:12;11.32;;;4.28;;
42364;SDS011;28498;54.400;18.566;2023-05-10T03:43:39;10.68;;;4.50;;
42364;SDS011;28498;54.400;18.566;2023-05-10T03:46:07;10.93;;;4.85;;
42364;SDS011;28498;54.400;18.566;2023-05-10T03:48:34;8.63;;;4.30;;
42364;SDS011;28498;54.400;18.566;2023-05-10T03:51:01;7.90;;;4.20;;
42364;SDS011;28498;54.400;18.566;2023-05-10T03:53:28;7.60;;;4.30;;
42364;SDS011;28498;54.400;18.566;2023-05-10T03:55:55;7.30;;;4.00;;
42364;SDS011;28498;54.400;18.566;2023-05-10T03:58:22;13.82;;;5.70;;
42364;SDS011;28498;54.400;18.566;2023-05-10T04:00:50;9.82;;;4.40;;
42364;SDS011;28498;54.400;18.566;2023-05-10T04:03:17;11.10;;;4.13;;
42364;SDS011;28498;54.400;18.566;2023-05-10T04:05:44;8.30;;;4.50;;
42364;SDS011;28498;54.400;18.566;2023-05-10T04:08:11;6.88;;;4.10;;
42364;SDS011;28498;54.400;18.566;2023-05-10T04:10:38;7.68;;;4.93;;
42364;SDS011;28498;54.400;18.566;2023-05-10T04:13:05;7.60;;;5.00;;
42364;SDS011;28498;54.400;18.566;2023-05-10T04:15:33;8.05;;;4.15;;
42364;SDS011;28498;54.400;18.566;2023-05-10T04:18:00;7.13;;;4.47;;
42364;SDS011;28498;54.400;18.566;2023-05-10T04:20:27;7.88;;;4.43;;
42364;SDS011;28498;54.400;18.566;2023-05-10T04:22:54;7.10;;;4.30;;
42364;SDS011;28498;54.400;18.566;2023-05-10T04:25:21;7.53;;;4.17;;
42364;SDS011;28498;54.400;18.566;2023-05-10T04:27:48;8.07;;;4.80;;
42364;SDS011;28498;54.400;18.566;2023-05-10T04:30:15;11.48;;;4.88;;
42364;SDS011;28498;54.400;18.566;2023-05-10T04:32:42;7.43;;;4.40;;
42364;SDS011;28498;54.400;18.566;2023-05-10T04:35:09;7.45;;;4.15;;
42364;SDS011;28498;54.400;18.566;2023-05-10T04:37:36;7.78;;;4.70;;
42364;SDS011;28498;54.400;18.566;2023-05-10T04:40:04;8.13;;;4.80;;
42364;SDS011;28498;54.400;18.566;2023-05-10T04:42:31;7.88;;;4.90;;
42364;SDS011;28498;54.400;18.566;2023-05-10T04:44:58;7.97;;;5.03;;
42364;SDS011;28498;54.400;18.566;2023-05-10T04:47:25;10.90;;;4.90;;
42364;SDS011;28498;54.400;18.566;2023-05-10T04:49:52;10.30;;;5.22;;
42364;SDS011;28498;54.400;18.566;2023-05-10T04:52:19;10.57;;;4.68;;
42364;SDS011;28498;54.400;18.566;2023-05-10T04:54:46;9.65;;;4.78;;
42364;SDS011;28498;54.400;18.566;2023-05-10T04:57:13;11.27;;;4.68;;
42364;SDS011;28498;54.400;18.566;2023-05-10T04:59:40;9.40;;;4.75;;
42364;SDS011;28498;54.400;18.566;2023-05-10T05:02:07;7.88;;;4.57;;
42364;SDS011;28498;54.400;18.566;2023-05-10T05:04:34;10.05;;;5.65;;
42364;SDS011;28498;54.400;18.566;2023-05-10T05:07:01;7.25;;;4.35;;
42364;SDS011;28498;54.400;18.566;2023-05-10T05:09:28;8.10;;;5.00;;
42364;SDS011;28498;54.400;18.566;2023-05-10T05:11:55;7.93;;;4.85;;
42364;SDS011;28498;54.400;18.566;2023-05-10T05:14:22;7.55;;;4.38;;
42364;SDS011;28498;54.400;18.566;2023-05-10T05:16:51;9.77;;;4.50;;
42364;SDS011;28498;54.400;18.566;2023-05-10T05:19:19;7.72;;;4.30;;
42364;SDS011;28498;54.400;18.566;2023-05-10T05:21:46;12.30;;;4.78;;
42364;SDS011;28498;54.400;18.566;2023-05-10T05:24:13;9.85;;;5.00;;
42364;SDS011;28498;54.400;18.566;2023-05-10T05:26:40;10.77;;;6.15;;
42364;SDS011;28498;54.400;18.566;2023-05-10T05:29:07;7.95;;;4.07;;
42364;SDS011;28498;54.400;18.566;2023-05-10T05:31:34;8.70;;;5.32;;
42364;SDS011;28498;54.400;18.566;2023-05-10T05:34:01;8.40;;;4.55;;
42364;SDS011;28498;54.400;18.566;2023-05-10T05:36:28;10.40;;;4.97;;
42364;SDS011;28498;54.400;18.566;2023-05-10T05:38:55;7.57;;;4.38;;
42364;SDS011;28498;54.400;18.566;2023-05-10T05:41:22;7.20;;;4.28;;
42364;SDS011;28498;54.400;18.566;2023-05-10T05:43:50;7.90;;;4.88;;
42364;SDS011;28498;54.400;18.566;2023-05-10T05:46:17;8.38;;;4.10;;
42364;SDS011;28498;54.400;18.566;2023-05-10T05:48:44;8.35;;;4.45;;
42364;SDS011;28498;54.400;18.566;2023-05-10T05:51:11;6.43;;;4.70;;
42364;SDS011;28498;54.400;18.566;2023-05-10T05:53:38;10.07;;;4.55;;
42364;SDS011;28498;54.400;18.566;2023-05-10T05:56:05;10.90;;;5.65;;
42364;SDS011;28498;54.400;18.566;2023-05-10T05:58:32;8.45;;;5.03;;
42364;SDS011;28498;54.400;18.566;2023-05-10T06:00:59;8.77;;;4.75;;
42364;SDS011;28498;54.400;18.566;2023-05-10T06:03:26;7.90;;;4.60;;
42364;SDS011;28498;54.400;18.566;2023-05-10T06:05:53;13.38;;;4.82;;
42364;SDS011;28498;54.400;18.566;2023-05-10T06:08:20;8.73;;;4.47;;
42364;SDS011;28498;54.400;18.566;2023-05-10T06:10:47;9.50;;;4.88;;
42364;SDS011;28498;54.400;18.566;2023-05-10T06:13:14;9.50;;;5.00;;
42364;SDS011;28498;54.400;18.566;2023-05-10T06:15:41;8.43;;;4.38;;
42364;SDS011;28498;54.400;18.566;2023-05-10T06:18:08;7.95;;;4.75;;
42364;SDS011;28498;54.400;18.566;2023-05-10T06:20:35;7.53;;;4.47;;
42364;SDS011;28498;54.400;18.566;2023-05-10T06:23:02;11.30;;;4.72;;
42364;SDS011;28498;54.400;18.566;2023-05-10T06:25:29;10.43;;;5.03;;
42364;SDS011;28498;54.400;18.566;2023-05-10T06:27:56;9.55;;;4.53;;
42364;SDS011;28498;54.400;18.566;2023-05-10T06:30:24;8.50;;;4.35;;
42364;SDS011;28498;54.400;18.566;2023-05-10T06:32:55;9.05;;;4.40;;
42364;SDS011;28498;54.400;18.566;2023-05-10T06:35:22;8.75;;;4.68;;
42364;SDS011;28498;54.400;18.566;2023-05-10T06:37:49;11.35;;;5.03;;
42364;SDS011;28498;54.400;18.566;2023-05-10T06:40:17;8.25;;;4.45;;
42364;SDS011;28498;54.400;18.566;2023-05-10T06:42:45;8.85;;;4.43;;
42364;SDS011;28498;54.400;18.566;2023-05-10T06:45:12;9.88;;;4.13;;
42364;SDS011;28498;54.400;18.566;2023-05-10T06:47:41;7.38;;;4.57;;
42364;SDS011;28498;54.400;18.566;2023-05-10T06:50:08;9.20;;;4.60;;
42364;SDS011;28498;54.400;18.566;2023-05-10T06:52:35;6.82;;;4.40;;
42364;SDS011;28498;54.400;18.566;2023-05-10T06:55:03;9.73;;;4.28;;
42364;SDS011;28498;54.400;18.566;2023-05-10T06:57:31;26.55;;;6.72;;
42364;SDS011;28498;54.400;18.566;2023-05-10T06:59:58;7.90;;;4.38;;
42364;SDS011;28498;54.400;18.566;2023-05-10T07:02:26;7.50;;;4.43;;
42364;SDS011;28498;54.400;18.566;2023-05-10T07:04:53;9.57;;;4.47;;
42364;SDS011;28498;54.400;18.566;2023-05-10T07:07:20;6.82;;;3.60;;
42364;SDS011;28498;54.400;18.566;2023-05-10T07:09:47;11.52;;;4.22;;
42364;SDS011;28498;54.400;18.566;2023-05-10T07:12:16;9.05;;;4.57;;
42364;SDS011;28498;54.400;18.566;2023-05-10T07:14:43;9.43;;;3.97;;
42364;SDS011;28498;54.400;18.566;2023-05-10T07:17:10;6.15;;;4.10;;
42364;SDS011;28498;54.400;18.566;2023-05-10T07:19:37;7.68;;;4.40;;
42364;SDS011;28498;54.400;18.566;2023-05-10T07:22:04;7.50;;;3.33;;
42364;SDS011;28498;54.400;18.566;2023-05-10T07:24:31;8.35;;;3.85;;
42364;SDS011;28498;54.400;18.566;2023-05-10T07:26:59;7.70;;;3.72;;
42364;SDS011;28498;54.400;18.566;2023-05-10T07:29:26;7.40;;;4.22;;
42364;SDS011;28498;54.400;18.566;2023-05-10T07:31:53;7.80;;;3.55;;
42364;SDS011;28498;54.400;18.566;2023-05-10T07:34:24;7.25;;;4.00;;
42364;SDS011;28498;54.400;18.566;2023-05-10T07:36:51;10.20;;;4.13;;
42364;SDS011;28498;54.400;18.566;2023-05-10T07:39:19;5.47;;;3.45;;
42364;SDS011;28498;54.400;18.566;2023-05-10T07:44:20;7.60;;;3.45;;
42364;SDS011;28498;54.400;18.566;2023-05-10T07:46:47;7.47;;;3.80;;
42364;SDS011;28498;54.400;18.566;2023-05-10T07:49:15;10.80;;;3.50;;
42364;SDS011;28498;54.400;18.566;2023-05-10T07:51:43;6.50;;;3.58;;
42364;SDS011;28498;54.400;18.566;2023-05-10T07:54:09;5.88;;;3.70;;
42364;SDS011;28498;54.400;18.566;2023-05-10T07:56:37;6.20;;;3.50;;
42364;SDS011;28498;54.400;18.566;2023-05-10T07:59:04;5.28;;;3.28;;
42364;SDS011;28498;54.400;18.566;2023-05-10T08:01:34;7.32;;;3.33;;
42364;SDS011;28498;54.400;18.566;2023-05-10T08:04:02;5.75;;;3.40;;
42364;SDS011;28498;54.400;18.566;2023-05-10T08:06:29;7.95;;;2.97;;
42364;SDS011;28498;54.400;18.566;2023-05-10T08:08:56;6.75;;;3.25;;
42364;SDS011;28498;54.400;18.566;2023-05-10T08:11:23;6.93;;;2.90;;
42364;SDS011;28498;54.400;18.566;2023-05-10T08:13:52;4.97;;;2.75;;
42364;SDS011;28498;54.400;18.566;2023-05-10T08:16:19;6.20;;;3.20;;
42364;SDS011;28498;54.400;18.566;2023-05-10T08:18:46;6.15;;;3.33;;
42364;SDS011;28498;54.400;18.566;2023-05-10T08:21:14;8.25;;;3.10;;
42364;SDS011;28498;54.400;18.566;2023-05-10T08:23:42;6.20;;;3.17;;
42364;SDS011;28498;54.400;18.566;2023-05-10T08:26:10;5.85;;;3.00;;
42364;SDS011;28498;54.400;18.566;2023-05-10T08:28:37;6.97;;;2.97;;
42364;SDS011;28498;54.400;18.566;2023-05-10T08:31:05;5.07;;;2.72;;
42364;SDS011;28498;54.400;18.566;2023-05-10T08:33:32;6.50;;;3.00;;
42364;SDS011;28498;54.400;18.566;2023-05-10T08:35:59;5.47;;;2.70;;
42364;SDS011;28498;54.400;18.566;2023-05-10T08:38:26;13.32;;;3.22;;
42364;SDS011;28498;54.400;18.566;2023-05-10T08:40:54;7.00;;;2.90;;
42364;SDS011;28498;54.400;18.566;2023-05-10T08:43:28;7.82;;;2.95;;
42364;SDS011;28498;54.400;18.566;2023-05-10T08:45:56;9.15;;;2.70;;
42364;SDS011;28498;54.400;18.566;2023-05-10T08:48:29;8.30;;;3.15;;
42364;SDS011;28498;54.400;18.566;2023-05-10T08:50:57;6.55;;;2.80;;
42364;SDS011;28498;54.400;18.566;2023-05-10T08:53:27;8.40;;;2.40;;
42364;SDS011;28498;54.400;18.566;2023-05-10T08:55:56;11.65;;;2.92;;
42364;SDS011;28498;54.400;18.566;2023-05-10T08:58:23;8.60;;;2.80;;
42364;SDS011;28498;54.400;18.566;2023-05-10T09:00:51;10.63;;;2.53;;
42364;SDS011;28498;54.400;18.566;2023-05-10T09:03:19;9.18;;;2.78;;
42364;SDS011;28498;54.400;18.566;2023-05-10T09:05:46;9.07;;;2.95;;
42364;SDS011;28498;54.400;18.566;2023-05-10T09:08:14;10.07;;;2.78;;
42364;SDS011;28498;54.400;18.566;2023-05-10T09:10:45;7.65;;;2.38;;
42364;SDS011;28498;54.400;18.566;2023-05-10T09:13:14;5.07;;;2.67;;
42364;SDS011;28498;54.400;18.566;2023-05-10T09:15:44;8.43;;;3.42;;
42364;SDS011;28498;54.400;18.566;2023-05-10T09:18:12;6.22;;;2.22;;
42364;SDS011;28498;54.400;18.566;2023-05-10T09:20:40;8.43;;;2.90;;
42364;SDS011;28498;54.400;18.566;2023-05-10T09:23:07;16.13;;;2.80;;
42364;SDS011;28498;54.400;18.566;2023-05-10T09:25:35;7.55;;;2.65;;
42364;SDS011;28498;54.400;18.566;2023-05-10T09:28:03;29.83;;;4.00;;
42364;SDS011;28498;54.400;18.566;2023-05-10T09:30:33;8.27;;;2.50;;
42364;SDS011;28498;54.400;18.566;2023-05-10T09:33:01;7.68;;;2.38;;
42364;SDS011;28498;54.400;18.566;2023-05-10T09:35:29;11.95;;;3.05;;
42364;SDS011;28498;54.400;18.566;2023-05-10T09:37:59;10.60;;;2.72;;
42364;SDS011;28498;54.400;18.566;2023-05-10T09:40:28;5.55;;;2.50;;
42364;SDS011;28498;54.400;18.566;2023-05-10T09:43:03;5.95;;;2.80;;
42364;SDS011;28498;54.400;18.566;2023-05-10T09:45:33;9.48;;;2.45;;
42364;SDS011;28498;54.400;18.566;2023-05-10T09:48:04;6.88;;;2.60;;
42364;SDS011;28498;54.400;18.566;2023-05-10T09:50:32;5.97;;;2.20;;
42364;SDS011;28498;54.400;18.566;2023-05-10T09:53:01;6.32;;;3.75;;
42364;SDS011;28498;54.400;18.566;2023-05-10T09:58:07;6.63;;;2.83;;
42364;SDS011;28498;54.400;18.566;2023-05-10T10:00:37;8.32;;;2.78;;
42364;SDS011;28498;54.400;18.566;2023-05-10T10:03:06;5.60;;;2.33;;
42364;SDS011;28498;54.400;18.566;2023-05-10T10:05:42;8.40;;;2.88;;
42364;SDS011;28498;54.400;18.566;2023-05-10T10:08:11;24.30;;;3.83;;
42364;SDS011;28498;54.400;18.566;2023-05-10T10:10:39;10.95;;;3.05;;
42364;SDS011;28498;54.400;18.566;2023-05-10T10:13:07;5.95;;;2.92;;
42364;SDS011;28498;54.400;18.566;2023-05-10T10:15:34;6.05;;;3.08;;
42364;SDS011;28498;54.400;18.566;2023-05-10T10:18:02;7.40;;;2.92;;
42364;SDS011;28498;54.400;18.566;2023-05-10T10:20:33;8.77;;;2.65;;
42364;SDS011;28498;54.400;18.566;2023-05-10T10:22:59;8.52;;;2.47;;
42364;SDS011;28498;54.400;18.566;2023-05-10T10:25:26;6.93;;;2.42;;
42364;SDS011;28498;54.400;18.566;2023-05-10T10:36:26;6.65;;;2.88;;
42364;SDS011;28498;54.400;18.566;2023-05-10T10:39:00;9.98;;;2.70;;
42364;SDS011;28498;54.400;18.566;2023-05-10T10:47:03;8.88;;;2.50;;
42364;SDS011;28498;54.400;18.566;2023-05-10T10:52:27;13.57;;;3.08;;
42364;SDS011;28498;54.400;18.566;2023-05-10T10:55:03;6.80;;;2.25;;
42364;SDS011;28498;54.400;18.566;2023-05-10T10:57:42;6.85;;;2.65;;
42364;SDS011;28498;54.400;18.566;2023-05-10T11:03:08;10.18;;;2.85;;
42364;SDS011;28498;54.400;18.566;2023-05-10T11:13:47;8.93;;;2.47;;
42364;SDS011;28498;54.400;18.566;2023-05-10T11:16:20;6.85;;;2.90;;
42364;SDS011;28498;54.400;18.566;2023-05-10T11:19:04;4.13;;;2.15;;
42364;SDS011;28498;54.400;18.566;2023-05-10T11:21:34;6.00;;;2.80;;
42364;SDS011;28498;54.400;18.566;2023-05-10T11:24:21;10.27;;;3.17;;
42364;SDS011;28498;54.400;18.566;2023-05-10T11:26:49;5.72;;;2.30;;
42364;SDS011;28498;54.400;18.566;2023-05-10T11:29:18;5.75;;;2.47;;
42364;SDS011;28498;54.400;18.566;2023-05-10T11:31:45;5.97;;;2.53;;
42364;SDS011;28498;54.400;18.566;2023-05-10T11:37:14;13.93;;;2.80;;
42364;SDS011;28498;54.400;18.566;2023-05-10T11:39:45;6.50;;;2.33;;
42364;SDS011;28498;54.400;18.566;2023-05-10T11:42:13;8.43;;;2.55;;
42364;SDS011;28498;54.400;18.566;2023-05-10T11:44:40;9.70;;;2.63;;
42364;SDS011;28498;54.400;18.566;2023-05-10T11:47:08;10.40;;;2.40;;
42364;SDS011;28498;54.400;18.566;2023-05-10T11:49:35;6.68;;;2.40;;
42364;SDS011;28498;54.400;18.566;2023-05-10T11:52:08;5.72;;;2.40;;
42364;SDS011;28498;54.400;18.566;2023-05-10T11:54:37;9.52;;;2.42;;
42364;SDS011;28498;54.400;18.566;2023-05-10T11:57:10;8.13;;;2.80;;
42364;SDS011;28498;54.400;18.566;2023-05-10T11:59:37;6.88;;;2.25;;
42364;SDS011;28498;54.400;18.566;2023-05-10T12:02:09;5.20;;;2.33;;
42364;SDS011;28498;54.400;18.566;2023-05-10T12:04:36;10.02;;;2.38;;
42364;SDS011;28498;54.400;18.566;2023-05-10T12:07:04;6.68;;;2.78;;
42364;SDS011;28498;54.400;18.566;2023-05-10T12:09:31;8.07;;;2.80;;
42364;SDS011;28498;54.400;18.566;2023-05-10T12:12:09;6.97;;;3.35;;
42364;SDS011;28498;54.400;18.566;2023-05-10T12:14:36;10.48;;;2.80;;
42364;SDS011;28498;54.400;18.566;2023-05-10T12:17:03;4.55;;;2.50;;
42364;SDS011;28498;54.400;18.566;2023-05-10T12:19:39;8.63;;;2.67;;
42364;SDS011;28498;54.400;18.566;2023-05-10T12:22:07;7.93;;;2.60;;
42364;SDS011;28498;54.400;18.566;2023-05-10T12:24:37;9.70;;;2.65;;
42364;SDS011;28498;54.400;18.566;2023-05-10T12:27:05;6.82;;;2.10;;
42364;SDS011;28498;54.400;18.566;2023-05-10T12:29:34;6.90;;;2.40;;
42364;SDS011;28498;54.400;18.566;2023-05-10T12:32:02;8.95;;;2.47;;
42364;SDS011;28498;54.400;18.566;2023-05-10T12:34:32;5.15;;;2.53;;
42364;SDS011;28498;54.400;18.566;2023-05-10T12:37:02;6.25;;;2.80;;
42364;SDS011;28498;54.400;18.566;2023-05-10T12:39:39;9.18;;;2.97;;
42364;SDS011;28498;54.400;18.566;2023-05-10T12:42:07;10.10;;;2.88;;
42364;SDS011;28498;54.400;18.566;2023-05-10T12:44:34;8.25;;;2.60;;
42364;SDS011;28498;54.400;18.566;2023-05-10T12:47:01;8.13;;;2.60;;
42364;SDS011;28498;54.400;18.566;2023-05-10T12:49:28;5.53;;;2.25;;
42364;SDS011;28498;54.400;18.566;2023-05-10T12:51:55;6.40;;;2.78;;
42364;SDS011;28498;54.400;18.566;2023-05-10T12:54:23;15.82;;;3.88;;
42364;SDS011;28498;54.400;18.566;2023-05-10T12:56:50;9.13;;;2.40;;
42364;SDS011;28498;54.400;18.566;2023-05-10T12:59:17;9.50;;;2.40;;
42364;SDS011;28498;54.400;18.566;2023-05-10T13:01:44;8.32;;;2.42;;
42364;SDS011;28498;54.400;18.566;2023-05-10T13:04:11;6.28;;;2.63;;
42364;SDS011;28498;54.400;18.566;2023-05-10T13:06:38;7.00;;;2.90;;
42364;SDS011;28498;54.400;18.566;2023-05-10T13:09:06;6.35;;;2.63;;
42364;SDS011;28498;54.400;18.566;2023-05-10T13:11:33;10.43;;;2.90;;
42364;SDS011;28498;54.400;18.566;2023-05-10T13:14:00;9.52;;;2.75;;
42364;SDS011;28498;54.400;18.566;2023-05-10T13:16:29;8.40;;;2.50;;
42364;SDS011;28498;54.400;18.566;2023-05-10T13:18:56;7.65;;;2.40;;
42364;SDS011;28498;54.400;18.566;2023-05-10T13:21:24;9.85;;;2.63;;
42364;SDS011;28498;54.400;18.566;2023-05-10T13:23:52;9.85;;;4.03;;
42364;SDS011;28498;54.400;18.566;2023-05-10T13:26:20;8.57;;;2.97;;
42364;SDS011;28498;54.400;18.566;2023-05-10T13:28:47;8.82;;;2.78;;
42364;SDS011;28498;54.400;18.566;2023-05-10T13:31:15;8.43;;;2.55;;
42364;SDS011;28498;54.400;18.566;2023-05-10T13:33:42;10.85;;;2.45;;
42364;SDS011;28498;54.400;18.566;2023-05-10T13:36:09;5.05;;;2.50;;
42364;SDS011;28498;54.400;18.566;2023-05-10T13:38:36;7.97;;;2.65;;
42364;SDS011;28498;54.400;18.566;2023-05-10T13:41:04;8.70;;;2.70;;
42364;SDS011;28498;54.400;18.566;2023-05-10T13:43:31;7.68;;;2.63;;
42364;SDS011;28498;54.400;18.566;2023-05-10T13:45:58;9.35;;;2.95;;
42364;SDS011;28498;54.400;18.566;2023-05-10T13:48:26;12.00;;;3.33;;
42364;SDS011;28498;54.400;18.566;2023-05-10T13:50:53;7.57;;;2.70;;
42364;SDS011;28498;54.400;18.566;2023-05-10T13:53:21;8.85;;;3.30;;
42364;SDS011;28498;54.400;18.566;2023-05-10T13:55:48;8.00;;;3.08;;
42364;SDS011;28498;54.400;18.566;2023-05-10T13:58:15;6.90;;;2.75;;
42364;SDS011;28498;54.400;18.566;2023-05-10T14:00:43;7.60;;;2.40;;
42364;SDS011;28498;54.400;18.566;2023-05-10T14:03:10;8.35;;;2.40;;
42364;SDS011;28498;54.400;18.566;2023-05-10T14:05:37;11.15;;;3.25;;
42364;SDS011;28498;54.400;18.566;2023-05-10T14:08:05;9.25;;;2.50;;
42364;SDS011;28498;54.400;18.566;2023-05-10T14:10:32;8.82;;;3.20;;
42364;SDS011;28498;54.400;18.566;2023-05-10T14:12:59;6.28;;;2.65;;
42364;SDS011;28498;54.400;18.566;2023-05-10T14:15:26;7.10;;;2.78;;
42364;SDS011;28498;54.400;18.566;2023-05-10T14:17:53;10.27;;;2.80;;
42364;SDS011;28498;54.400;18.566;2023-05-10T14:20:20;8.75;;;2.60;;
42364;SDS011;28498;54.400;18.566;2023-05-10T14:22:47;4.72;;;2.47;;
42364;SDS011;28498;54.400;18.566;2023-05-10T14:25:14;7.82;;;2.40;;
42364;SDS011;28498;54.400;18.566;2023-05-10T14:27:42;6.75;;;2.50;;
42364;SDS011;28498;54.400;18.566;2023-05-10T14:30:09;10.07;;;2.78;;
42364;SDS011;28498;54.400;18.566;2023-05-10T14:32:36;6.63;;;2.30;;
42364;SDS011;28498;54.400;18.566;2023-05-10T14:35:04;7.63;;;2.22;;
42364;SDS011;28498;54.400;18.566;2023-05-10T14:37:32;4.75;;;2.47;;
42364;SDS011;28498;54.400;18.566;2023-05-10T14:40:00;7.25;;;2.15;;
42364;SDS011;28498;54.400;18.566;2023-05-10T14:42:27;6.45;;;2.25;;
42364;SDS011;28498;54.400;18.566;2023-05-10T14:44:54;7.75;;;2.20;;
42364;SDS011;28498;54.400;18.566;2023-05-10T14:47:21;5.10;;;1.95;;
42364;SDS011;28498;54.400;18.566;2023-05-10T14:49:48;7.20;;;2.47;;
42364;SDS011;28498;54.400;18.566;2023-05-10T14:52:15;3.35;;;1.98;;
42364;SDS011;28498;54.400;18.566;2023-05-10T14:54:43;9.48;;;2.40;;
42364;SDS011;28498;54.400;18.566;2023-05-10T14:57:10;9.20;;;2.08;;
42364;SDS011;28498;54.400;18.566;2023-05-10T14:59:38;7.97;;;2.10;;
42364;SDS011;28498;54.400;18.566;2023-05-10T15:02:05;7.30;;;2.10;;
42364;SDS011;28498;54.400;18.566;2023-05-10T15:04:34;7.82;;;2.65;;
42364;SDS011;28498;54.400;18.566;2023-05-10T15:07:02;4.35;;;2.00;;
42364;SDS011;28498;54.400;18.566;2023-05-10T15:09:29;7.03;;;2.40;;
42364;SDS011;28498;54.400;18.566;2023-05-10T15:11:56;8.73;;;2.10;;
42364;SDS011;28498;54.400;18.566;2023-05-10T15:14:23;4.25;;;2.00;;
42364;SDS011;28498;54.400;18.566;2023-05-10T15:16:51;3.88;;;1.90;;
42364;SDS011;28498;54.400;18.566;2023-05-10T15:19:19;9.93;;;2.42;;
42364;SDS011;28498;54.400;18.566;2023-05-10T15:21:47;6.75;;;2.10;;
42364;SDS011;28498;54.400;18.566;2023-05-10T15:24:14;7.68;;;1.83;;
42364;SDS011;28498;54.400;18.566;2023-05-10T15:26:41;6.38;;;2.40;;
42364;SDS011;28498;54.400;18.566;2023-05-10T15:29:08;5.82;;;2.50;;
42364;SDS011;28498;54.400;18.566;2023-05-10T15:31:36;3.90;;;1.90;;
42364;SDS011;28498;54.400;18.566;2023-05-10T15:34:03;6.20;;;2.03;;
42364;SDS011;28498;54.400;18.566;2023-05-10T15:36:31;5.82;;;1.95;;